Time;durP1;ratioP1;P1;durP2;ratioP2;P2;SDS_P1;SDS_P2;PMS_P1;PMS_P2;Temp;Humidity;BMP_temperature;BMP_pressure;BME280_temperature;BME280_humidity;BME280_pressure;Samples;Min_cycle;Max_cycle;Signal;HPM_P1;HPM_P2
2022/07/31 04:05:08;;;;;;;5.70;5.30;;;16.00;99.90;;;;;;5208369;22;20505;-62
2022/07/31 04:07:34;;;;;;;6.97;6.27;;;16.00;99.90;;;;;;4957219;29;20424;-63
2022/07/31 04:10:01;;;;;;;5.60;5.20;;;16.00;99.90;;;;;;4957129;29;20477;-63
2022/07/31 04:12:27;;;;;;;5.23;4.87;;;16.10;99.90;;;;;;4956956;29;20188;-62
2022/07/31 04:14:52;;;;;;;5.70;5.20;;;16.10;99.90;;;;;;4955950;28;20448;-62
2022/07/31 04:17:18;;;;;;;6.80;6.17;;;16.00;99.90;;;;;;4956565;29;20452;-63
2022/07/31 04:19:44;;;;;;;6.63;5.90;;;16.10;99.90;;;;;;4939702;29;20213;-62
2022/07/31 04:22:09;;;;;;;6.03;5.53;;;16.20;99.90;;;;;;4957018;29;20230;-63
2022/07/31 04:24:35;;;;;;;7.00;5.60;;;16.30;99.90;;;;;;4956311;29;20196;-62
2022/07/31 04:27:03;;;;;;;5.73;5.20;;;16.30;99.90;;;;;;4956975;29;20172;-63
2022/07/31 04:29:28;;;;;;;6.37;5.87;;;16.30;99.90;;;;;;4956466;29;20633;-63
2022/07/31 04:31:54;;;;;;;5.87;5.37;;;16.30;99.90;;;;;;4956903;29;20460;-63
2022/07/31 04:34:20;;;;;;;5.83;5.27;;;16.30;99.90;;;;;;4955067;29;20201;-62
2022/07/31 04:36:46;;;;;;;5.90;5.47;;;16.30;99.90;;;;;;4956513;29;20443;-62
2022/07/31 04:39:11;;;;;;;6.30;5.77;;;16.20;99.90;;;;;;4956672;29;20563;-63
2022/07/31 04:41:37;;;;;;;6.20;5.60;;;16.20;99.90;;;;;;4956896;29;20169;-63
2022/07/31 04:44:03;;;;;;;6.10;5.60;;;16.20;99.90;;;;;;4956286;29;20228;-63
2022/07/31 04:46:28;;;;;;;5.97;5.47;;;16.40;99.90;;;;;;4956615;29;20687;-62
2022/07/31 04:48:54;;;;;;;5.83;5.23;;;16.60;99.90;;;;;;4956409;29;20272;-62
2022/07/31 04:51:22;;;;;;;6.13;5.63;;;16.70;99.90;;;;;;4956060;29;20181;-63
2022/07/31 04:53:51;;;;;;;5.47;5.07;;;16.90;99.90;;;;;;4955884;29;20217;-64
2022/07/31 04:56:34;;;;;;;6.70;5.83;;;17.10;99.90;;;;;;4956420;29;20906;-62
2022/07/31 04:59:07;;;;;;;5.83;5.43;;;17.30;99.90;;;;;;4956391;29;20492;-63
2022/07/31 05:01:33;;;;;;;6.00;5.60;;;17.60;99.90;;;;;;4956490;29;20422;-63
2022/07/31 05:03:59;;;;;;;5.87;5.37;;;17.80;99.90;;;;;;4955673;29;20965;-62
2022/07/31 05:06:35;;;;;;;5.70;5.30;;;18.10;99.90;;;;;;4955892;29;20415;-63
2022/07/31 05:09:02;;;;;;;5.17;4.77;;;18.20;99.90;;;;;;4956205;29;20469;-63
2022/07/31 05:11:27;;;;;;;5.33;4.83;;;18.30;99.90;;;;;;4956241;28;20771;-63
2022/07/31 05:13:56;;;;;;;4.60;4.30;;;18.40;99.90;;;;;;4955760;29;20435;-62
2022/07/31 05:16:22;;;;;;;5.87;5.37;;;18.50;99.90;;;;;;4955739;29;20189;-63
2022/07/31 05:18:48;;;;;;;4.80;4.40;;;18.50;99.90;;;;;;4955917;29;20431;-62
2022/07/31 05:21:15;;;;;;;4.47;4.17;;;18.80;99.90;;;;;;4955824;29;20454;-62
2022/07/31 05:23:43;;;;;;;4.00;3.77;;;19.10;99.90;;;;;;4955067;29;20432;-63
2022/07/31 05:26:09;;;;;;;4.80;4.40;;;19.50;99.90;;;;;;4955500;29;20472;-62
2022/07/31 05:28:37;;;;;;;4.53;4.23;;;19.70;99.90;;;;;;4955675;29;20412;-64
2022/07/31 05:31:03;;;;;;;4.50;4.20;;;19.90;99.90;;;;;;4947553;29;20431;-61
2022/07/31 05:33:28;;;;;;;4.70;4.30;;;20.10;99.90;;;;;;4955335;29;20443;-64
2022/07/31 05:35:55;;;;;;;4.40;4.10;;;20.10;99.90;;;;;;4955705;29;20929;-62
2022/07/31 05:38:21;;;;;;;4.83;4.17;;;20.20;99.90;;;;;;4955453;29;20181;-62
2022/07/31 05:40:48;;;;;;;4.90;4.50;;;20.10;99.90;;;;;;4938279;29;20487;-64
2022/07/31 05:43:14;;;;;;;4.63;4.33;;;20.20;99.90;;;;;;4937793;29;20779;-63
2022/07/31 05:45:39;;;;;;;4.50;4.20;;;20.00;99.90;;;;;;4955101;29;20394;-62
2022/07/31 05:48:05;;;;;;;4.70;4.40;;;19.80;99.90;;;;;;4955506;29;20185;-63
2022/07/31 05:50:33;;;;;;;4.30;4.00;;;19.80;99.90;;;;;;4955336;29;20624;-62
2022/07/31 05:52:59;;;;;;;4.43;4.13;;;19.60;99.90;;;;;;4955063;29;20189;-63
2022/07/31 05:55:25;;;;;;;4.47;4.07;;;19.60;99.90;;;;;;4955222;29;20440;-63
2022/07/31 05:57:51;;;;;;;4.60;4.30;;;19.60;99.90;;;;;;4955442;29;20412;-62
2022/07/31 06:00:17;;;;;;;4.53;4.13;;;19.70;99.90;;;;;;4954996;29;20251;-64
2022/07/31 06:02:44;;;;;;;4.17;3.83;;;19.80;99.90;;;;;;4955080;29;20427;-61
2022/07/31 06:05:10;;;;;;;4.20;3.90;;;20.00;99.90;;;;;;4955060;29;20452;-62
2022/07/31 06:07:35;;;;;;;4.53;4.20;;;20.10;99.90;;;;;;4955329;29;20419;-63
2022/07/31 06:10:02;;;;;;;4.27;3.97;;;20.10;99.90;;;;;;4955209;29;20184;-62
2022/07/31 06:12:27;;;;;;;4.30;4.00;;;20.30;99.90;;;;;;4954774;29;20181;-63
2022/07/31 06:14:53;;;;;;;4.00;3.70;;;20.40;99.90;;;;;;4954919;29;20960;-63
2022/07/31 06:17:18;;;;;;;3.83;3.50;;;20.50;99.90;;;;;;4954466;29;20223;-63
2022/07/31 06:19:44;;;;;;;4.20;3.90;;;20.50;99.90;;;;;;4944155;29;20210;-62
2022/07/31 06:22:10;;;;;;;4.07;3.77;;;20.70;99.90;;;;;;4936286;29;20192;-62
2022/07/31 06:24:36;;;;;;;3.80;3.60;;;20.80;99.90;;;;;;4940142;29;20240;-62
2022/07/31 06:27:02;;;;;;;3.60;3.13;;;20.90;99.90;;;;;;4956262;29;20189;-62
2022/07/31 06:29:28;;;;;;;3.50;3.30;;;21.00;99.90;;;;;;4958400;29;20970;-63
2022/07/31 06:31:54;;;;;;;3.80;3.50;;;21.20;99.90;;;;;;4958197;29;20432;-62
2022/07/31 06:34:20;;;;;;;3.83;3.53;;;21.30;99.90;;;;;;4958029;29;20966;-63
2022/07/31 06:36:45;;;;;;;3.57;3.27;;;21.50;99.70;;;;;;4957808;29;20414;-62
2022/07/31 06:39:11;;;;;;;3.50;3.20;;;21.70;99.40;;;;;;4958258;29;20427;-63
2022/07/31 06:41:43;;;;;;;3.47;3.27;;;21.80;99.30;;;;;;4955482;29;20303;-64
2022/07/31 06:44:18;;;;;;;3.67;3.37;;;22.00;99.10;;;;;;4947663;29;20205;-63
2022/07/31 06:46:48;;;;;;;3.30;3.10;;;22.10;98.70;;;;;;4934773;29;20414;-65
2022/07/31 06:49:14;;;;;;;4.17;3.77;;;22.30;98.30;;;;;;4958121;29;20465;-64
2022/07/31 06:51:40;;;;;;;3.50;3.30;;;22.40;98.10;;;;;;4939098;29;20806;-64
2022/07/31 06:54:09;;;;;;;4.30;4.00;;;22.60;97.90;;;;;;4938755;29;20411;-63
2022/07/31 06:56:36;;;;;;;4.30;3.97;;;22.50;97.80;;;;;;4957368;29;20896;-64
2022/07/31 06:59:04;;;;;;;3.20;3.00;;;22.50;98.00;;;;;;4937702;29;20431;-64
2022/07/31 07:01:29;;;;;;;3.30;3.10;;;22.60;98.00;;;;;;4944339;29;20445;-64
2022/07/31 07:03:55;;;;;;;3.63;3.43;;;22.60;97.70;;;;;;4949245;29;20419;-64
2022/07/31 07:06:22;;;;;;;5.07;3.80;;;22.80;97.30;;;;;;4938206;29;20188;-63
2022/07/31 07:08:47;;;;;;;3.13;2.97;;;23.00;97.10;;;;;;4951219;29;20399;-63
2022/07/31 07:11:13;;;;;;;3.30;3.10;;;23.00;96.90;;;;;;4957449;29;20750;-63
2022/07/31 07:13:40;;;;;;;3.40;3.20;;;23.10;96.90;;;;;;4956077;28;20288;-63
2022/07/31 07:16:05;;;;;;;3.63;3.43;;;23.10;96.80;;;;;;4956078;29;20582;-63
2022/07/31 07:18:31;;;;;;;4.00;3.70;;;23.20;96.40;;;;;;4957434;29;20477;-65
2022/07/31 07:20:57;;;;;;;3.40;3.10;;;23.10;96.00;;;;;;4957588;29;20215;-64
2022/07/31 07:23:22;;;;;;;3.97;3.77;;;23.10;96.20;;;;;;4957074;29;20180;-64
2022/07/31 07:25:49;;;;;;;3.90;3.70;;;23.10;96.50;;;;;;4957522;29;20172;-63
2022/07/31 07:28:15;;;;;;;2.90;2.80;;;23.20;96.30;;;;;;4957479;29;20192;-64
2022/07/31 07:30:41;;;;;;;2.87;2.67;;;23.30;96.20;;;;;;4957257;29;20431;-62
2022/07/31 07:33:06;;;;;;;3.60;3.40;;;23.40;96.30;;;;;;4924057;29;20403;-62
2022/07/31 07:35:32;;;;;;;3.87;3.57;;;23.50;95.80;;;;;;4956403;28;20173;-62
2022/07/31 07:37:58;;;;;;;3.07;2.87;;;23.70;95.50;;;;;;4957024;29;20188;-62
2022/07/31 07:40:25;;;;;;;2.80;2.60;;;23.80;95.30;;;;;;4957185;29;20208;-62
2022/07/31 07:42:51;;;;;;;3.27;3.07;;;23.90;95.10;;;;;;4955626;29;20211;-61
2022/07/31 07:45:17;;;;;;;3.20;3.00;;;24.00;94.90;;;;;;4957174;29;20473;-61
2022/07/31 07:47:43;;;;;;;3.03;2.83;;;24.20;94.70;;;;;;4940292;29;20411;-62
2022/07/31 07:50:09;;;;;;;3.00;2.80;;;24.40;94.40;;;;;;4957330;29;20391;-62
2022/07/31 07:52:37;;;;;;;3.50;3.20;;;24.60;93.60;;;;;;4956689;29;20591;-63
2022/07/31 07:55:04;;;;;;;2.90;2.70;;;24.80;93.50;;;;;;4957136;29;20427;-62
2022/07/31 07:57:31;;;;;;;3.47;3.10;;;25.00;93.10;;;;;;4957463;29;20416;-62
2022/07/31 08:00:00;;;;;;;2.80;2.63;;;25.30;92.60;;;;;;4957065;29;20439;-62
2022/07/31 08:02:26;;;;;;;2.70;2.53;;;25.50;92.20;;;;;;4957086;29;20422;-63
2022/07/31 08:04:51;;;;;;;3.70;3.30;;;25.60;91.90;;;;;;4957141;28;20464;-63
2022/07/31 08:07:25;;;;;;;3.43;3.23;;;25.70;91.50;;;;;;4957349;29;20217;-62
2022/07/31 08:09:51;;;;;;;3.17;3.00;;;25.70;91.40;;;;;;4957439;29;20519;-62
2022/07/31 08:12:17;;;;;;;3.20;2.97;;;25.90;91.30;;;;;;4957106;29;20417;-63
2022/07/31 08:14:42;;;;;;;3.10;2.90;;;25.90;90.80;;;;;;4956286;29;20201;-63
2022/07/31 08:17:12;;;;;;;3.40;3.20;;;26.00;90.30;;;;;;4956694;29;20256;-63
2022/07/31 08:19:37;;;;;;;3.70;3.50;;;25.90;90.30;;;;;;4957052;29;20279;-64
2022/07/31 08:22:03;;;;;;;4.10;3.80;;;25.80;90.30;;;;;;4956396;29;20488;-63
2022/07/31 08:24:29;;;;;;;3.40;3.20;;;25.80;90.60;;;;;;4956417;29;20229;-62
2022/07/31 08:29:38;;;;;;;2.57;2.47;;;25.90;90.10;;;;;;4957353;29;20240;-62
2022/07/31 08:32:04;;;;;;;3.60;3.40;;;26.00;90.40;;;;;;4956962;29;20423;-64
2022/07/31 08:34:31;;;;;;;3.60;3.30;;;26.30;90.20;;;;;;4956241;29;20199;-63
2022/07/31 08:36:57;;;;;;;3.77;3.50;;;26.30;89.40;;;;;;4956381;29;20894;-63
2022/07/31 08:39:22;;;;;;;3.43;3.23;;;26.40;88.30;;;;;;4956644;29;20419;-64
2022/07/31 08:41:48;;;;;;;3.37;3.17;;;26.50;88.20;;;;;;4956635;29;20670;-64
2022/07/31 08:44:14;;;;;;;3.63;3.43;;;26.80;87.30;;;;;;4956220;29;20288;-63
2022/07/31 08:46:39;;;;;;;3.33;3.13;;;27.10;86.50;;;;;;4956087;28;20556;-64
2022/07/31 08:49:06;;;;;;;3.63;3.43;;;27.40;85.50;;;;;;4956389;29;20643;-64
2022/07/31 08:51:35;;;;;;;3.47;3.17;;;27.70;83.30;;;;;;4939158;29;20535;-64
2022/07/31 08:54:05;;;;;;;3.43;3.23;;;28.00;83.10;;;;;;4956005;29;20743;-65
2022/07/31 08:56:36;;;;;;;2.93;2.73;;;29.10;81.70;;;;;;4956461;29;20436;-64
2022/07/31 08:59:02;;;;;;;3.17;3.07;;;30.60;76.90;;;;;;4955969;29;20421;-64
2022/07/31 09:01:28;;;;;;;3.30;3.10;;;32.20;71.50;;;;;;4938868;29;20516;-65
2022/07/31 09:03:55;;;;;;;3.20;3.00;;;33.50;66.60;;;;;;4955906;29;20432;-64
2022/07/31 09:06:21;;;;;;;6.70;6.20;;;34.50;61.10;;;;;;4956021;29;20424;-62
2022/07/31 09:08:46;;;;;;;3.30;3.10;;;35.50;57.40;;;;;;4956234;29;20927;-64
2022/07/31 09:11:13;;;;;;;3.30;3.10;;;36.30;54.70;;;;;;4956191;29;20180;-63
2022/07/31 09:13:50;;;;;;;4.77;3.30;;;37.10;55.00;;;;;;4955301;29;20204;-63
2022/07/31 09:16:16;;;;;;;3.40;3.20;;;37.80;52.70;;;;;;4955711;29;20435;-63
2022/07/31 09:18:42;;;;;;;4.13;3.93;;;38.40;51.70;;;;;;4955716;29;20420;-63
2022/07/31 09:21:08;;;;;;;3.47;3.17;;;39.10;49.90;;;;;;4955751;29;20208;-64
2022/07/31 09:23:47;;;;;;;3.60;3.40;;;39.40;48.20;;;;;;4954875;29;20201;-63
2022/07/31 09:26:14;;;;;;;2.83;2.73;;;39.30;46.90;;;;;;4955796;29;20208;-63
2022/07/31 09:28:43;;;;;;;3.00;2.90;;;38.80;47.50;;;;;;4955471;29;20427;-63
2022/07/31 09:31:10;;;;;;;2.87;2.77;;;38.90;46.80;;;;;;4955770;29;20421;-63
2022/07/31 09:33:38;;;;;;;2.87;2.77;;;39.30;45.60;;;;;;4955353;29;20523;-64
2022/07/31 09:36:04;;;;;;;2.80;2.70;;;40.00;45.30;;;;;;4955668;29;20428;-64
2022/07/31 09:38:36;;;;;;;2.93;2.83;;;40.20;43.00;;;;;;4955198;29;20494;-65
2022/07/31 09:41:12;;;;;;;3.27;3.13;;;39.30;43.70;;;;;;4954981;29;20523;-64
2022/07/31 09:43:38;;;;;;;2.80;2.70;;;39.30;45.20;;;;;;4955095;29;20436;-64
2022/07/31 09:46:05;;;;;;;2.90;2.80;;;39.70;44.80;;;;;;4955578;29;20423;-64
2022/07/31 09:48:32;;;;;;;4.23;3.20;;;40.10;43.60;;;;;;4955348;29;20409;-64
2022/07/31 09:51:03;;;;;;;3.17;3.07;;;40.90;43.10;;;;;;4955588;29;20420;-64
2022/07/31 09:53:46;;;;;;;2.87;2.77;;;41.50;41.50;;;;;;4954544;29;20484;-64
2022/07/31 09:56:13;;;;;;;2.93;2.83;;;41.70;41.00;;;;;;4954934;29;20495;-65
2022/07/31 09:58:40;;;;;;;3.50;3.30;;;41.60;40.50;;;;;;4954619;28;20465;-64
2022/07/31 10:01:09;;;;;;;3.07;2.90;;;41.30;41.00;;;;;;4955182;29;20907;-64
2022/07/31 10:03:36;;;;;;;3.10;2.93;;;40.70;41.20;;;;;;4954759;29;20831;-65
2022/07/31 10:06:04;;;;;;;3.10;2.90;;;39.50;41.80;;;;;;4954917;29;20476;-64
2022/07/31 10:08:34;;;;;;;2.70;2.60;;;38.20;42.90;;;;;;4954736;29;20421;-65
2022/07/31 10:11:01;;;;;;;2.50;2.30;;;37.20;44.30;;;;;;4955099;29;20818;-64
2022/07/31 10:13:28;;;;;;;2.90;2.80;;;36.20;45.30;;;;;;4954621;29;20436;-63
2022/07/31 10:15:56;;;;;;;3.10;2.90;;;36.10;46.10;;;;;;4955247;29;20451;-64
2022/07/31 10:18:23;;;;;;;2.67;2.57;;;36.30;47.20;;;;;;4955148;29;20906;-64
2022/07/31 10:20:51;;;;;;;2.57;2.47;;;;;;;;;;4955152;29;20803;-64
2022/07/31 10:23:26;;;;;;;2.80;2.50;;;36.70;45.80;;;;;;4954340;29;20519;-64
2022/07/31 10:25:55;;;;;;;2.97;2.80;;;37.10;45.10;;;;;;4955427;29;20409;-64
2022/07/31 10:28:22;;;;;;;2.60;2.40;;;37.60;45.60;;;;;;4937900;29;20437;-65
2022/07/31 10:30:49;;;;;;;3.10;2.90;;;38.30;44.60;;;;;;4954943;29;20464;-64
2022/07/31 10:33:16;;;;;;;2.43;2.33;;;38.50;44.60;;;;;;4954437;29;20444;-65
2022/07/31 10:36:09;;;;;;;2.60;2.50;;;38.80;43.90;;;;;;4954962;29;20907;-65
2022/07/31 10:39:04;;;;;;;2.47;2.37;;;39.20;43.30;;;;;;4936067;29;20418;-64
2022/07/31 10:41:33;;;;;;;2.77;2.67;;;39.20;42.70;;;;;;4935826;29;20465;-64
2022/07/31 10:44:06;;;;;;;2.60;2.50;;;39.20;43.20;;;;;;4935609;29;20433;-64
2022/07/31 10:46:33;;;;;;;2.93;2.77;;;39.90;43.10;;;;;;4935999;29;20417;-64
2022/07/31 10:48:59;;;;;;;3.33;3.13;;;40.40;42.50;;;;;;4935722;29;20421;-65
2022/07/31 10:51:25;;;;;;;2.40;2.30;;;40.40;41.50;;;;;;4940971;29;20646;-65
2022/07/31 10:53:56;;;;;;;2.30;2.20;;;40.20;41.40;;;;;;4954378;29;20432;-64
2022/07/31 10:56:22;;;;;;;3.00;2.80;;;39.30;41.00;;;;;;4955088;29;20420;-63
2022/07/31 10:58:50;;;;;;;2.50;2.40;;;38.80;42.00;;;;;;4954857;29;20413;-64
2022/07/31 11:01:17;;;;;;;2.70;2.50;;;38.30;42.30;;;;;;4954968;29;20184;-64
2022/07/31 11:03:46;;;;;;;2.43;2.33;;;37.90;42.60;;;;;;4954303;29;20801;-63
2022/07/31 11:06:14;;;;;;;2.70;2.50;;;37.50;42.90;;;;;;4954246;29;20440;-64
2022/07/31 11:08:52;;;;;;;2.43;2.33;;;37.40;42.90;;;;;;4954466;29;20516;-63
2022/07/31 11:11:31;;;;;;;2.87;2.70;;;37.00;43.60;;;;;;4957994;29;20422;-64
2022/07/31 11:13:58;;;;;;;2.77;2.57;;;36.10;44.00;;;;;;4957658;29;20479;-63
2022/07/31 11:16:24;;;;;;;3.03;2.80;;;35.20;45.80;;;;;;4957990;29;20815;-64
2022/07/31 11:19:03;;;;;;;2.60;2.50;;;34.30;46.50;;;;;;4958042;29;20467;-64
2022/07/31 11:21:35;;;;;;;2.30;2.20;;;33.40;47.40;;;;;;4957761;29;20416;-64
2022/07/31 11:24:10;;;;;;;2.60;2.50;;;32.90;48.40;;;;;;4957724;29;20476;-63
2022/07/31 11:26:36;;;;;;;3.07;2.57;;;32.50;49.20;;;;;;4958170;29;20918;-63
2022/07/31 11:29:01;;;;;;;3.80;2.30;;;32.40;48.80;;;;;;4957675;29;20447;-63
2022/07/31 11:31:29;;;;;;;2.70;2.60;;;32.30;49.20;;;;;;4957860;29;20180;-63
2022/07/31 11:33:54;;;;;;;2.53;2.33;;;32.10;49.50;;;;;;4957480;29;20536;-63
2022/07/31 11:36:25;;;;;;;2.20;2.10;;;31.90;49.80;;;;;;4957498;29;20499;-64
2022/07/31 11:38:54;;;;;;;2.47;2.37;;;31.80;49.90;;;;;;4957996;29;20591;-64
2022/07/31 11:41:20;;;;;;;2.60;2.50;;;31.70;50.20;;;;;;4957833;29;20405;-63
2022/07/31 11:43:50;;;;;;;2.33;2.20;;;31.80;50.10;;;;;;4957121;29;20778;-64
2022/07/31 11:46:30;;;;;;;2.20;2.10;;;31.90;50.60;;;;;;4940441;29;20436;-64
2022/07/31 11:48:57;;;;;;;2.13;2.03;;;32.00;50.50;;;;;;4957741;29;20761;-64
2022/07/31 11:51:23;;;;;;;2.50;2.30;;;32.00;50.20;;;;;;4957488;29;20424;-63
2022/07/31 11:53:50;;;;;;;2.90;2.53;;;32.00;50.10;;;;;;4957025;29;20491;-63
2022/07/31 11:56:18;;;;;;;3.00;2.80;;;32.10;50.10;;;;;;4957550;29;20401;-64
2022/07/31 11:59:01;;;;;;;2.77;2.60;;;31.90;50.30;;;;;;4957623;29;20424;-64
2022/07/31 12:01:28;;;;;;;2.77;2.57;;;31.80;50.90;;;;;;4954383;29;20428;-64
2022/07/31 12:03:56;;;;;;;3.00;2.70;;;31.90;51.20;;;;;;4957056;29;20768;-64
2022/07/31 12:06:22;;;;;;;2.13;2.00;;;32.00;51.10;;;;;;4957097;28;20444;-63
2022/07/31 12:08:49;;;;;;;2.20;2.07;;;32.30;50.50;;;;;;4957374;29;20417;-62
2022/07/31 12:11:16;;;;;;;2.43;2.33;;;32.40;49.50;;;;;;4957038;29;20439;-63
2022/07/31 12:13:46;;;;;;;2.73;2.53;;;32.40;49.90;;;;;;4956716;29;20435;-62
2022/07/31 12:16:11;;;;;;;3.03;2.73;;;32.40;49.90;;;;;;4957291;29;20411;-64
2022/07/31 12:18:53;;;;;;;2.90;2.80;;;32.20;49.60;;;;;;4957134;29;20763;-63
2022/07/31 12:21:20;;;;;;;2.60;2.40;;;31.90;50.90;;;;;;4955508;28;20647;-65
2022/07/31 12:23:48;;;;;;;3.00;2.80;;;31.60;50.20;;;;;;4956154;29;20469;-64
2022/07/31 12:26:26;;;;;;;2.60;2.40;;;31.40;50.80;;;;;;4956841;29;20454;-63
2022/07/31 12:29:06;;;;;;;2.50;2.30;;;31.10;50.80;;;;;;4940076;29;20424;-63
2022/07/31 12:31:52;;;;;;;2.23;2.13;;;30.90;51.70;;;;;;4957071;29;20391;-64
2022/07/31 12:34:39;;;;;;;2.30;2.20;;;30.70;52.40;;;;;;4956563;29;20428;-64
2022/07/31 12:37:13;;;;;;;2.43;2.23;;;30.70;52.70;;;;;;4956880;29;20413;-64
2022/07/31 12:39:55;;;;;;;2.50;2.40;;;30.80;52.30;;;;;;4956433;29;20444;-63
2022/07/31 12:42:21;;;;;;;2.30;2.20;;;31.00;51.40;;;;;;4956215;29;20420;-63
2022/07/31 12:44:48;;;;;;;2.77;2.57;;;31.10;51.70;;;;;;4956398;29;20922;-63
2022/07/31 12:47:40;;;;;;;2.60;2.50;;;31.10;52.00;;;;;;4956757;29;20783;-66
2022/07/31 12:50:05;;;;;;;2.30;2.20;;;31.10;52.10;;;;;;4952980;29;20559;-65
2022/07/31 12:52:33;;;;;;;2.30;2.20;;;31.00;52.20;;;;;;4956169;29;20499;-63
2022/07/31 12:55:02;;;;;;;2.80;2.60;;;30.90;52.60;;;;;;4956170;29;20515;-64
2022/07/31 12:57:28;;;;;;;2.70;2.60;;;31.00;52.90;;;;;;4956350;29;20870;-64
2022/07/31 12:59:54;;;;;;;2.33;2.23;;;31.10;52.20;;;;;;4956282;29;20387;-64
2022/07/31 13:02:20;;;;;;;3.07;2.70;;;31.00;51.80;;;;;;4956258;29;20795;-62
2022/07/31 13:04:45;;;;;;;3.10;2.80;;;30.90;52.50;;;;;;4955853;29;20516;-64
2022/07/31 13:07:13;;;;;;;3.20;3.00;;;30.80;52.90;;;;;;4956216;29;20431;-65
2022/07/31 13:09:39;;;;;;;3.00;2.80;;;30.70;53.00;;;;;;4938987;29;20244;-64
2022/07/31 13:12:05;;;;;;;2.80;2.60;;;30.70;53.90;;;;;;4956059;29;20426;-65
2022/07/31 13:14:30;;;;;;;2.33;2.23;;;30.80;53.00;;;;;;4955733;29;20189;-65
2022/07/31 13:16:56;;;;;;;2.63;2.53;;;30.90;52.40;;;;;;4956111;29;20383;-63
2022/07/31 13:19:22;;;;;;;2.37;2.27;;;30.80;52.40;;;;;;4956092;29;20635;-63
2022/07/31 13:21:50;;;;;;;2.43;2.30;;;30.70;52.90;;;;;;4955900;29;20647;-64
2022/07/31 13:24:18;;;;;;;2.13;2.03;;;30.70;52.50;;;;;;4955440;29;20208;-62
2022/07/31 13:26:44;;;;;;;2.70;2.60;;;30.60;53.40;;;;;;4955926;29;20399;-63
2022/07/31 13:29:10;;;;;;;3.33;2.80;;;30.50;53.20;;;;;;4956196;29;20411;-64
2022/07/31 13:31:35;;;;;;;3.23;2.60;;;30.40;53.50;;;;;;4955923;29;20546;-64
2022/07/31 13:34:01;;;;;;;4.33;3.93;;;30.40;54.30;;;;;;4937240;29;20936;-63
2022/07/31 13:36:27;;;;;;;3.63;3.10;;;30.50;54.50;;;;;;4955511;29;20279;-63
2022/07/31 13:38:52;;;;;;;2.30;2.20;;;30.70;53.30;;;;;;4955896;29;20661;-63
2022/07/31 13:41:24;;;;;;;2.37;2.27;;;30.70;53.30;;;;;;4955422;29;20272;-64
2022/07/31 13:43:50;;;;;;;2.43;2.33;;;30.70;53.10;;;;;;4955625;29;20204;-64
2022/07/31 13:46:17;;;;;;;2.73;2.53;;;30.60;52.90;;;;;;4955725;29;20391;-64
2022/07/31 13:48:43;;;;;;;2.50;2.30;;;30.50;53.20;;;;;;4955728;29;20421;-63
2022/07/31 13:51:08;;;;;;;3.87;2.20;;;30.40;53.70;;;;;;4955270;29;20461;-63
2022/07/31 13:53:34;;;;;;;2.13;2.03;;;30.40;53.70;;;;;;4955254;29;20196;-62
2022/07/31 13:56:00;;;;;;;2.47;2.37;;;30.30;53.70;;;;;;4955473;29;20177;-62
2022/07/31 13:58:26;;;;;;;2.80;2.60;;;30.30;54.00;;;;;;4938635;29;20172;-65
2022/07/31 14:00:52;;;;;;;2.53;2.43;;;30.20;54.40;;;;;;4955541;29;20192;-62
2022/07/31 14:03:18;;;;;;;2.30;2.20;;;30.20;54.80;;;;;;4937619;29;20450;-63
2022/07/31 14:05:44;;;;;;;2.53;2.40;;;30.30;55.00;;;;;;4954850;29;20423;-63
2022/07/31 14:08:09;;;;;;;2.40;2.30;;;30.40;55.40;;;;;;4955506;29;20192;-64
2022/07/31 14:10:35;;;;;;;2.20;2.10;;;30.60;54.70;;;;;;4955401;29;20721;-63
2022/07/31 14:13:01;;;;;;;2.53;2.43;;;30.50;54.20;;;;;;4955064;29;20177;-63
2022/07/31 14:15:26;;;;;;;2.50;2.40;;;30.50;54.10;;;;;;4955410;29;20193;-63
2022/07/31 14:17:52;;;;;;;2.20;2.10;;;30.40;53.70;;;;;;4955436;29;20185;-63
2022/07/31 14:20:17;;;;;;;2.90;2.70;;;30.30;54.00;;;;;;4955083;29;20707;-64
2022/07/31 14:22:43;;;;;;;2.30;2.20;;;30.20;54.30;;;;;;4955052;29;20181;-64
2022/07/31 14:25:10;;;;;;;2.13;2.03;;;30.20;54.00;;;;;;4955241;29;20700;-62
2022/07/31 14:27:37;;;;;;;2.10;1.90;;;30.20;53.70;;;;;;4955050;29;20181;-64
2022/07/31 14:30:05;;;;;;;2.23;2.13;;;30.10;53.80;;;;;;4955104;29;20430;-63
2022/07/31 14:32:30;;;;;;;2.33;2.17;;;30.10;54.20;;;;;;4954708;29;20392;-64
2022/07/31 14:34:56;;;;;;;2.10;2.00;;;30.10;53.80;;;;;;4954638;29;21000;-62
2022/07/31 14:37:21;;;;;;;2.00;1.90;;;30.20;54.00;;;;;;4955023;29;20173;-65
2022/07/31 14:39:47;;;;;;;2.60;2.10;;;30.30;53.90;;;;;;4955142;29;20263;-65
2022/07/31 14:42:13;;;;;;;2.67;2.53;;;30.40;53.20;;;;;;4955171;29;20640;-65
2022/07/31 14:44:40;;;;;;;2.43;2.23;;;30.50;53.70;;;;;;4955806;28;20196;-64
2022/07/31 14:47:07;;;;;;;2.23;2.13;;;30.50;53.20;;;;;;4958880;29;20181;-65
2022/07/31 14:49:33;;;;;;;2.40;2.20;;;30.70;53.00;;;;;;4958514;29;20452;-65
2022/07/31 14:51:59;;;;;;;2.50;2.30;;;30.80;52.70;;;;;;4958541;29;20941;-64
2022/07/31 14:54:24;;;;;;;2.30;2.20;;;30.90;51.60;;;;;;4958255;29;20428;-64
2022/07/31 14:56:50;;;;;;;2.47;2.27;;;30.90;51.40;;;;;;4958564;29;20412;-63
2022/07/31 14:59:16;;;;;;;2.40;2.30;;;31.00;51.50;;;;;;4958615;29;20177;-64
2022/07/31 15:01:42;;;;;;;3.00;2.80;;;31.00;52.20;;;;;;4959431;29;20176;-64
2022/07/31 15:04:07;;;;;;;2.27;2.17;;;31.10;52.50;;;;;;4958272;29;20554;-65
2022/07/31 15:06:33;;;;;;;2.23;2.13;;;31.10;51.70;;;;;;4958082;29;20189;-65
2022/07/31 15:08:58;;;;;;;2.20;2.03;;;31.20;50.50;;;;;;4958569;29;20177;-65
2022/07/31 15:11:24;;;;;;;2.17;2.07;;;31.30;50.60;;;;;;4958359;29;20201;-65
2022/07/31 15:13:50;;;;;;;2.30;2.10;;;31.40;50.40;;;;;;4957923;29;20224;-63
2022/07/31 15:16:15;;;;;;;2.40;1.93;;;31.30;50.30;;;;;;4958446;29;20169;-63
2022/07/31 15:18:41;;;;;;;2.53;2.43;;;31.20;50.30;;;;;;4958169;29;20211;-64
2022/07/31 15:21:15;;;;;;;2.23;2.13;;;31.20;50.90;;;;;;4958098;29;20181;-65
2022/07/31 15:23:41;;;;;;;1.63;1.60;;;31.10;50.90;;;;;;4957523;29;20207;-65
2022/07/31 15:26:07;;;;;;;2.37;2.27;;;30.90;50.60;;;;;;4958079;29;20394;-64
2022/07/31 15:28:33;;;;;;;2.40;2.30;;;30.90;51.00;;;;;;4958164;29;20420;-65
2022/07/31 15:30:59;;;;;;;2.10;2.00;;;30.80;51.30;;;;;;4958053;29;20243;-63
2022/07/31 15:33:25;;;;;;;2.10;2.00;;;30.80;50.60;;;;;;4957732;29;20407;-64
2022/07/31 15:35:51;;;;;;;2.70;2.50;;;30.80;50.90;;;;;;4957769;29;20417;-65
2022/07/31 15:38:16;;;;;;;2.40;2.30;;;30.80;51.60;;;;;;4958024;29;20415;-64
2022/07/31 15:40:42;;;;;;;2.27;2.17;;;30.70;51.30;;;;;;4957863;29;20630;-63
2022/07/31 15:43:07;;;;;;;2.27;2.13;;;30.70;51.60;;;;;;4957370;29;20177;-64
2022/07/31 15:45:33;;;;;;;2.20;2.10;;;30.70;51.60;;;;;;4957910;29;20252;-65
2022/07/31 15:47:59;;;;;;;2.70;2.50;;;30.80;52.20;;;;;;4957576;29;20533;-64
2022/07/31 15:50:24;;;;;;;2.27;2.17;;;30.90;52.50;;;;;;4957289;29;20201;-64
2022/07/31 15:52:50;;;;;;;2.10;2.00;;;31.00;51.70;;;;;;4957160;29;20173;-64
2022/07/31 15:55:16;;;;;;;2.50;2.30;;;31.10;51.70;;;;;;4957472;28;20189;-65
2022/07/31 15:57:42;;;;;;;2.90;2.70;;;31.10;51.30;;;;;;4956846;29;20181;-64
2022/07/31 16:00:11;;;;;;;2.20;2.10;;;31.20;52.20;;;;;;4957432;29;20408;-64
2022/07/31 16:02:37;;;;;;;2.20;2.10;;;31.30;51.40;;;;;;4956967;29;20432;-64
2022/07/31 16:05:04;;;;;;;2.23;2.13;;;31.30;51.10;;;;;;4939813;29;20874;-63
2022/07/31 16:07:29;;;;;;;2.67;2.50;;;31.30;51.00;;;;;;4959109;29;20399;-64
2022/07/31 16:09:55;;;;;;;2.30;2.20;;;31.30;51.40;;;;;;4958750;29;21029;-64
2022/07/31 16:12:20;;;;;;;2.90;2.10;;;31.30;51.40;;;;;;4957663;29;20205;-63
2022/07/31 16:14:46;;;;;;;2.47;2.37;;;31.40;51.60;;;;;;4958704;29;20663;-63
2022/07/31 16:17:11;;;;;;;2.20;2.10;;;31.30;51.70;;;;;;4958530;29;20177;-64
2022/07/31 16:19:37;;;;;;;2.57;2.40;;;31.20;51.70;;;;;;4957107;29;20634;-64
2022/07/31 16:22:03;;;;;;;2.70;2.60;;;31.10;51.90;;;;;;4957044;29;20184;-63
2022/07/31 16:24:29;;;;;;;2.70;2.50;;;31.00;51.70;;;;;;4956516;29;20196;-62
2022/07/31 16:26:54;;;;;;;3.40;2.87;;;30.90;51.70;;;;;;4956664;29;20184;-65
2022/07/31 16:29:22;;;;;;;3.37;2.47;;;30.80;52.50;;;;;;4956915;29;20204;-63
2022/07/31 16:31:49;;;;;;;3.00;2.80;;;30.70;52.50;;;;;;4956807;29;20220;-65
2022/07/31 16:34:15;;;;;;;2.43;2.33;;;30.50;52.80;;;;;;4956654;29;20437;-64
2022/07/31 16:36:42;;;;;;;2.50;2.30;;;30.30;52.80;;;;;;4956840;29;20502;-63
2022/07/31 16:39:09;;;;;;;2.97;2.77;;;30.20;52.90;;;;;;4956855;29;20894;-63
2022/07/31 16:41:35;;;;;;;2.30;2.20;;;30.00;53.20;;;;;;4956079;29;20434;-63
2022/07/31 16:44:00;;;;;;;3.40;2.43;;;29.90;53.60;;;;;;4950356;29;20516;-64
2022/07/31 16:46:26;;;;;;;2.30;2.20;;;29.70;53.90;;;;;;4937437;29;20463;-65
2022/07/31 16:48:51;;;;;;;2.47;2.27;;;29.60;54.10;;;;;;4937363;29;20180;-61
2022/07/31 16:51:17;;;;;;;2.47;2.37;;;29.40;54.20;;;;;;4937101;29;20248;-63
2022/07/31 16:53:43;;;;;;;3.80;2.83;;;29.40;54.70;;;;;;4936678;29;20202;-63
2022/07/31 16:56:10;;;;;;;2.80;2.60;;;29.30;54.70;;;;;;4947438;29;20509;-63